sensor_id;sensor_type;location;lat;lon;timestamp;temperature;humidity
57282;DHT22;43129;52.628;10.098;2023-08-06T00:01:58;14.70;99.90
57282;DHT22;43129;52.628;10.098;2023-08-06T00:04:23;14.70;99.90
57282;DHT22;43129;52.628;10.098;2023-08-06T00:06:54;14.70;99.90
57282;DHT22;43129;52.628;10.098;2023-08-06T00:09:19;14.70;99.90
57282;DHT22;43129;52.628;10.098;2023-08-06T00:11:45;14.70;99.90
57282;DHT22;43129;52.628;10.098;2023-08-06T00:14:12;14.70;99.90
57282;DHT22;43129;52.628;10.098;2023-08-06T00:16:45;14.70;99.90
57282;DHT22;43129;52.628;10.098;2023-08-06T00:19:13;14.70;99.90
57282;DHT22;43129;52.628;10.098;2023-08-06T00:21:42;14.70;99.90
57282;DHT22;43129;52.628;10.098;2023-08-06T00:24:12;14.70;99.90
57282;DHT22;43129;52.628;10.098;2023-08-06T00:26:37;14.70;99.90
57282;DHT22;43129;52.628;10.098;2023-08-06T00:29:03;14.60;99.90
57282;DHT22;43129;52.628;10.098;2023-08-06T00:31:29;14.60;99.90
57282;DHT22;43129;52.628;10.098;2023-08-06T00:33:59;14.50;99.90
57282;DHT22;43129;52.628;10.098;2023-08-06T00:36:29;14.60;99.90
57282;DHT22;43129;52.628;10.098;2023-08-06T00:38:57;14.60;99.90
57282;DHT22;43129;52.628;10.098;2023-08-06T00:41:22;14.60;99.90
57282;DHT22;43129;52.628;10.098;2023-08-06T00:43:48;14.60;99.90
57282;DHT22;43129;52.628;10.098;2023-08-06T00:46:14;14.60;99.90
57282;DHT22;43129;52.628;10.098;2023-08-06T00:48:40;14.60;99.90
57282;DHT22;43129;52.628;10.098;2023-08-06T00:51:11;14.70;99.90
57282;DHT22;43129;52.628;10.098;2023-08-06T00:53:41;14.70;99.90
57282;DHT22;43129;52.628;10.098;2023-08-06T00:56:07;14.70;99.90
57282;DHT22;43129;52.628;10.098;2023-08-06T00:58:35;14.70;99.90
57282;DHT22;43129;52.628;10.098;2023-08-06T01:01:01;14.70;99.90
57282;DHT22;43129;52.628;10.098;2023-08-06T01:03:27;14.70;99.90
57282;DHT22;43129;52.628;10.098;2023-08-06T01:05:52;14.70;99.90
57282;DHT22;43129;52.628;10.098;2023-08-06T01:14:30;14.70;99.90
57282;DHT22;43129;52.628;10.098;2023-08-06T01:16:58;14.70;99.90
57282;DHT22;43129;52.628;10.098;2023-08-06T01:19:26;14.80;99.90
57282;DHT22;43129;52.628;10.098;2023-08-06T01:21:53;14.70;99.90
57282;DHT22;43129;52.628;10.098;2023-08-06T01:24:19;14.70;99.90
57282;DHT22;43129;52.628;10.098;2023-08-06T01:26:50;14.70;99.90
57282;DHT22;43129;52.628;10.098;2023-08-06T01:29:22;14.70;99.90
57282;DHT22;43129;52.628;10.098;2023-08-06T01:31:51;14.70;99.90
57282;DHT22;43129;52.628;10.098;2023-08-06T01:34:21;14.80;99.90
57282;DHT22;43129;52.628;10.098;2023-08-06T01:36:47;14.80;99.90
57282;DHT22;43129;52.628;10.098;2023-08-06T01:39:13;14.80;99.90
57282;DHT22;43129;52.628;10.098;2023-08-06T01:41:39;14.90;99.90
57282;DHT22;43129;52.628;10.098;2023-08-06T01:44:05;14.90;99.90
57282;DHT22;43129;52.628;10.098;2023-08-06T01:46:30;14.80;99.90
57282;DHT22;43129;52.628;10.098;2023-08-06T01:48:56;14.80;99.90
57282;DHT22;43129;52.628;10.098;2023-08-06T01:51:21;14.90;99.90
57282;DHT22;43129;52.628;10.098;2023-08-06T01:53:49;14.80;99.90
57282;DHT22;43129;52.628;10.098;2023-08-06T01:56:15;14.80;99.90
57282;DHT22;43129;52.628;10.098;2023-08-06T01:58:41;14.80;99.90
57282;DHT22;43129;52.628;10.098;2023-08-06T02:01:06;14.80;99.90
57282;DHT22;43129;52.628;10.098;2023-08-06T02:03:32;14.80;99.90
57282;DHT22;43129;52.628;10.098;2023-08-06T02:06:00;14.80;99.90
57282;DHT22;43129;52.628;10.098;2023-08-06T02:08:29;14.80;99.90
57282;DHT22;43129;52.628;10.098;2023-08-06T02:10:55;14.80;99.90
57282;DHT22;43129;52.628;10.098;2023-08-06T02:13:20;14.90;99.90
57282;DHT22;43129;52.628;10.098;2023-08-06T02:15:49;14.90;99.90
57282;DHT22;43129;52.628;10.098;2023-08-06T02:18:17;14.80;99.90
57282;DHT22;43129;52.628;10.098;2023-08-06T02:20:42;14.80;99.90
57282;DHT22;43129;52.628;10.098;2023-08-06T02:23:08;14.80;99.90
57282;DHT22;43129;52.628;10.098;2023-08-06T02:25:36;14.70;99.90
57282;DHT22;43129;52.628;10.098;2023-08-06T02:28:05;14.80;99.90
57282;DHT22;43129;52.628;10.098;2023-08-06T02:30:30;14.80;99.90
57282;DHT22;43129;52.628;10.098;2023-08-06T02:32:56;14.70;99.90
57282;DHT22;43129;52.628;10.098;2023-08-06T02:35:26;14.80;99.90
57282;DHT22;43129;52.628;10.098;2023-08-06T02:37:55;14.80;99.90
57282;DHT22;43129;52.628;10.098;2023-08-06T02:40:20;14.80;99.90
57282;DHT22;43129;52.628;10.098;2023-08-06T02:42:46;14.70;99.90
57282;DHT22;43129;52.628;10.098;2023-08-06T02:45:14;14.80;99.90
57282;DHT22;43129;52.628;10.098;2023-08-06T02:47:40;14.70;99.90
57282;DHT22;43129;52.628;10.098;2023-08-06T02:50:08;14.70;99.90
57282;DHT22;43129;52.628;10.098;2023-08-06T02:52:34;14.70;99.90
57282;DHT22;43129;52.628;10.098;2023-08-06T02:55:00;14.70;99.90
57282;DHT22;43129;52.628;10.098;2023-08-06T02:57:30;14.70;99.90
57282;DHT22;43129;52.628;10.098;2023-08-06T02:59:55;14.70;99.90
57282;DHT22;43129;52.628;10.098;2023-08-06T03:02:21;14.60;99.90
57282;DHT22;43129;52.628;10.098;2023-08-06T03:04:49;14.70;99.90
57282;DHT22;43129;52.628;10.098;2023-08-06T03:07:19;14.70;99.90
57282;DHT22;43129;52.628;10.098;2023-08-06T03:09:45;14.60;99.90
57282;DHT22;43129;52.628;10.098;2023-08-06T03:12:13;14.60;99.90
57282;DHT22;43129;52.628;10.098;2023-08-06T03:14:41;14.70;99.90
57282;DHT22;43129;52.628;10.098;2023-08-06T03:17:09;14.70;99.90
57282;DHT22;43129;52.628;10.098;2023-08-06T03:19:34;14.70;99.90
57282;DHT22;43129;52.628;10.098;2023-08-06T03:22:00;14.70;99.90
57282;DHT22;43129;52.628;10.098;2023-08-06T03:24:28;14.70;99.90
57282;DHT22;43129;52.628;10.098;2023-08-06T03:26:54;14.60;99.90
57282;DHT22;43129;52.628;10.098;2023-08-06T03:29:24;14.60;99.90
57282;DHT22;43129;52.628;10.098;2023-08-06T03:31:52;14.60;99.90
57282;DHT22;43129;52.628;10.098;2023-08-06T03:34:17;14.60;99.90
57282;DHT22;43129;52.628;10.098;2023-08-06T03:36:43;14.60;99.90
57282;DHT22;43129;52.628;10.098;2023-08-06T03:39:09;14.60;99.90
57282;DHT22;43129;52.628;10.098;2023-08-06T03:41:34;14.60;99.90
57282;DHT22;43129;52.628;10.098;2023-08-06T03:44:00;14.70;99.90
57282;DHT22;43129;52.628;10.098;2023-08-06T03:46:28;14.70;99.90
57282;DHT22;43129;52.628;10.098;2023-08-06T03:48:53;14.60;99.90
57282;DHT22;43129;52.628;10.098;2023-08-06T03:51:21;14.60;99.90
57282;DHT22;43129;52.628;10.098;2023-08-06T03:53:47;14.70;99.90
57282;DHT22;43129;52.628;10.098;2023-08-06T03:56:17;14.70;99.90
57282;DHT22;43129;52.628;10.098;2023-08-06T03:58:46;14.70;99.90
57282;DHT22;43129;52.628;10.098;2023-08-06T04:01:11;14.60;99.90
57282;DHT22;43129;52.628;10.098;2023-08-06T04:03:37;14.60;99.90
57282;DHT22;43129;52.628;10.098;2023-08-06T04:06:05;14.60;99.90
57282;DHT22;43129;52.628;10.098;2023-08-06T04:08:33;14.60;99.90
57282;DHT22;43129;52.628;10.098;2023-08-06T04:11:03;14.70;99.90
57282;DHT22;43129;52.628;10.098;2023-08-06T04:13:29;14.70;99.90
57282;DHT22;43129;52.628;10.098;2023-08-06T04:15:54;14.70;99.90
57282;DHT22;43129;52.628;10.098;2023-08-06T04:18:20;14.70;99.90
57282;DHT22;43129;52.628;10.098;2023-08-06T04:20:48;14.70;99.90
57282;DHT22;43129;52.628;10.098;2023-08-06T04:23:17;14.70;99.90
57282;DHT22;43129;52.628;10.098;2023-08-06T04:25:43;14.70;99.90
57282;DHT22;43129;52.628;10.098;2023-08-06T04:28:09;14.70;99.90
57282;DHT22;43129;52.628;10.098;2023-08-06T04:30:34;14.60;99.90
57282;DHT22;43129;52.628;10.098;2023-08-06T04:33:00;14.70;99.90
57282;DHT22;43129;52.628;10.098;2023-08-06T04:35:26;14.70;99.90
57282;DHT22;43129;52.628;10.098;2023-08-06T04:37:51;14.70;99.90
57282;DHT22;43129;52.628;10.098;2023-08-06T04:40:17;14.70;99.90
57282;DHT22;43129;52.628;10.098;2023-08-06T04:42:42;14.70;99.90
57282;DHT22;43129;52.628;10.098;2023-08-06T04:45:08;14.70;99.90
57282;DHT22;43129;52.628;10.098;2023-08-06T04:47:37;14.70;99.90
57282;DHT22;43129;52.628;10.098;2023-08-06T04:50:05;14.70;99.90
57282;DHT22;43129;52.628;10.098;2023-08-06T04:52:33;14.70;99.90
57282;DHT22;43129;52.628;10.098;2023-08-06T04:54:58;14.70;99.90
57282;DHT22;43129;52.628;10.098;2023-08-06T04:57:26;14.70;99.90
57282;DHT22;43129;52.628;10.098;2023-08-06T04:59:52;14.70;99.90
57282;DHT22;43129;52.628;10.098;2023-08-06T05:02:17;14.70;99.90
57282;DHT22;43129;52.628;10.098;2023-08-06T05:04:43;14.70;99.90
57282;DHT22;43129;52.628;10.098;2023-08-06T05:07:11;14.80;99.90
57282;DHT22;43129;52.628;10.098;2023-08-06T05:09:37;14.90;99.90
57282;DHT22;43129;52.628;10.098;2023-08-06T05:12:04;15.00;99.90
57282;DHT22;43129;52.628;10.098;2023-08-06T05:14:29;15.10;99.90
57282;DHT22;43129;52.628;10.098;2023-08-06T05:16:55;15.10;99.90
57282;DHT22;43129;52.628;10.098;2023-08-06T05:19:20;15.10;99.90
57282;DHT22;43129;52.628;10.098;2023-08-06T05:21:46;15.20;99.90
57282;DHT22;43129;52.628;10.098;2023-08-06T05:24:12;15.20;99.90
57282;DHT22;43129;52.628;10.098;2023-08-06T05:26:39;15.20;99.90
57282;DHT22;43129;52.628;10.098;2023-08-06T05:29:05;15.30;99.90
57282;DHT22;43129;52.628;10.098;2023-08-06T05:31:31;15.20;99.90
57282;DHT22;43129;52.628;10.098;2023-08-06T05:33:56;15.20;99.90
57282;DHT22;43129;52.628;10.098;2023-08-06T05:36:24;15.30;99.90
57282;DHT22;43129;52.628;10.098;2023-08-06T05:38:54;15.30;99.90
57282;DHT22;43129;52.628;10.098;2023-08-06T05:41:20;15.30;99.90
57282;DHT22;43129;52.628;10.098;2023-08-06T05:43:48;15.30;99.90
57282;DHT22;43129;52.628;10.098;2023-08-06T05:46:13;15.50;99.90
57282;DHT22;43129;52.628;10.098;2023-08-06T05:48:39;15.60;99.90
57282;DHT22;43129;52.628;10.098;2023-08-06T05:51:06;15.60;99.90
57282;DHT22;43129;52.628;10.098;2023-08-06T05:53:31;15.50;99.90
57282;DHT22;43129;52.628;10.098;2023-08-06T05:55:57;15.50;99.90
57282;DHT22;43129;52.628;10.098;2023-08-06T05:58:22;15.60;99.90
57282;DHT22;43129;52.628;10.098;2023-08-06T06:00:53;15.50;99.90
57282;DHT22;43129;52.628;10.098;2023-08-06T06:03:19;15.50;99.90
57282;DHT22;43129;52.628;10.098;2023-08-06T06:05:47;15.50;99.90
57282;DHT22;43129;52.628;10.098;2023-08-06T06:08:13;15.50;99.90
57282;DHT22;43129;52.628;10.098;2023-08-06T06:10:41;15.60;99.90
57282;DHT22;43129;52.628;10.098;2023-08-06T06:13:06;15.60;99.90
57282;DHT22;43129;52.628;10.098;2023-08-06T06:15:34;15.60;99.90
57282;DHT22;43129;52.628;10.098;2023-08-06T06:18:02;15.70;99.90
57282;DHT22;43129;52.628;10.098;2023-08-06T06:20:28;15.70;99.90
57282;DHT22;43129;52.628;10.098;2023-08-06T06:22:56;15.70;99.90
57282;DHT22;43129;52.628;10.098;2023-08-06T06:25:26;15.80;99.90
57282;DHT22;43129;52.628;10.098;2023-08-06T06:27:51;15.90;99.90
57282;DHT22;43129;52.628;10.098;2023-08-06T06:30:17;16.00;99.90
57282;DHT22;43129;52.628;10.098;2023-08-06T06:32:45;16.00;99.90
57282;DHT22;43129;52.628;10.098;2023-08-06T06:35:12;16.00;99.90
57282;DHT22;43129;52.628;10.098;2023-08-06T06:37:37;15.70;99.90
57282;DHT22;43129;52.628;10.098;2023-08-06T06:40:03;15.70;99.90
57282;DHT22;43129;52.628;10.098;2023-08-06T06:42:31;15.70;99.90
57282;DHT22;43129;52.628;10.098;2023-08-06T06:45:02;15.70;99.90
57282;DHT22;43129;52.628;10.098;2023-08-06T06:47:27;15.90;99.90
57282;DHT22;43129;52.628;10.098;2023-08-06T06:49:53;15.80;99.90
57282;DHT22;43129;52.628;10.098;2023-08-06T06:52:18;15.80;99.90
57282;DHT22;43129;52.628;10.098;2023-08-06T06:54:44;15.80;99.90
57282;DHT22;43129;52.628;10.098;2023-08-06T06:57:10;15.70;99.90
57282;DHT22;43129;52.628;10.098;2023-08-06T06:59:38;15.60;99.90
57282;DHT22;43129;52.628;10.098;2023-08-06T07:02:05;15.60;99.90
57282;DHT22;43129;52.628;10.098;2023-08-06T07:04:33;15.80;99.90
57282;DHT22;43129;52.628;10.098;2023-08-06T07:07:01;15.80;99.90
57282;DHT22;43129;52.628;10.098;2023-08-06T07:09:27;15.70;99.90
57282;DHT22;43129;52.628;10.098;2023-08-06T07:11:52;15.80;99.90
57282;DHT22;43129;52.628;10.098;2023-08-06T07:14:18;15.90;99.90
57282;DHT22;43129;52.628;10.098;2023-08-06T07:16:46;16.00;99.90
57282;DHT22;43129;52.628;10.098;2023-08-06T07:19:14;16.10;99.90
57282;DHT22;43129;52.628;10.098;2023-08-06T07:21:39;16.30;99.90
57282;DHT22;43129;52.628;10.098;2023-08-06T07:24:07;16.40;99.90
57282;DHT22;43129;52.628;10.098;2023-08-06T07:26:33;16.80;99.90
57282;DHT22;43129;52.628;10.098;2023-08-06T07:28:59;16.50;99.90
57282;DHT22;43129;52.628;10.098;2023-08-06T07:31:24;16.70;99.90
57282;DHT22;43129;52.628;10.098;2023-08-06T07:33:50;17.10;99.90
57282;DHT22;43129;52.628;10.098;2023-08-06T07:36:18;17.10;99.90
57282;DHT22;43129;52.628;10.098;2023-08-06T07:38:46;17.10;99.90
57282;DHT22;43129;52.628;10.098;2023-08-06T07:41:15;17.40;99.90
57282;DHT22;43129;52.628;10.098;2023-08-06T07:43:40;17.30;99.90
57282;DHT22;43129;52.628;10.098;2023-08-06T07:46:08;17.50;99.90
57282;DHT22;43129;52.628;10.098;2023-08-06T07:48:34;17.90;99.90
57282;DHT22;43129;52.628;10.098;2023-08-06T07:51:02;18.20;99.90
57282;DHT22;43129;52.628;10.098;2023-08-06T07:53:27;18.40;99.90
57282;DHT22;43129;52.628;10.098;2023-08-06T07:55:54;18.30;99.90
57282;DHT22;43129;52.628;10.098;2023-08-06T07:58:23;18.30;99.90
57282;DHT22;43129;52.628;10.098;2023-08-06T08:00:49;18.70;99.90
57282;DHT22;43129;52.628;10.098;2023-08-06T08:03:16;19.10;99.90
57282;DHT22;43129;52.628;10.098;2023-08-06T08:05:43;19.10;99.90
57282;DHT22;43129;52.628;10.098;2023-08-06T08:08:09;19.80;99.90
57282;DHT22;43129;52.628;10.098;2023-08-06T08:10:37;19.80;99.90
57282;DHT22;43129;52.628;10.098;2023-08-06T08:13:04;19.80;99.90
57282;DHT22;43129;52.628;10.098;2023-08-06T08:15:34;19.80;99.90
57282;DHT22;43129;52.628;10.098;2023-08-06T08:18:00;19.80;99.90
57282;DHT22;43129;52.628;10.098;2023-08-06T08:20:28;20.60;99.90
57282;DHT22;43129;52.628;10.098;2023-08-06T08:22:59;21.60;99.90
57282;DHT22;43129;52.628;10.098;2023-08-06T08:25:26;21.80;99.90
57282;DHT22;43129;52.628;10.098;2023-08-06T08:27:54;21.90;99.90
57282;DHT22;43129;52.628;10.098;2023-08-06T08:30:23;22.10;99.90
57282;DHT22;43129;52.628;10.098;2023-08-06T08:32:50;21.80;99.90
57282;DHT22;43129;52.628;10.098;2023-08-06T08:35:15;21.30;99.90
57282;DHT22;43129;52.628;10.098;2023-08-06T08:37:43;21.20;99.90
57282;DHT22;43129;52.628;10.098;2023-08-06T08:40:09;21.20;99.90
57282;DHT22;43129;52.628;10.098;2023-08-06T08:42:36;20.90;99.90
57282;DHT22;43129;52.628;10.098;2023-08-06T08:45:04;21.20;99.90
57282;DHT22;43129;52.628;10.098;2023-08-06T08:47:30;21.70;99.90
57282;DHT22;43129;52.628;10.098;2023-08-06T08:49:59;21.50;99.90
57282;DHT22;43129;52.628;10.098;2023-08-06T08:52:26;21.70;99.90
57282;DHT22;43129;52.628;10.098;2023-08-06T08:54:58;21.90;99.90
57282;DHT22;43129;52.628;10.098;2023-08-06T08:57:25;23.30;99.90
57282;DHT22;43129;52.628;10.098;2023-08-06T08:59:53;23.30;99.90
57282;DHT22;43129;52.628;10.098;2023-08-06T09:02:21;23.20;99.90
57282;DHT22;43129;52.628;10.098;2023-08-06T09:04:49;22.70;99.90
57282;DHT22;43129;52.628;10.098;2023-08-06T09:07:18;23.30;99.90
57282;DHT22;43129;52.628;10.098;2023-08-06T09:09:49;23.70;98.00
57282;DHT22;43129;52.628;10.098;2023-08-06T09:12:17;24.10;96.70
57282;DHT22;43129;52.628;10.098;2023-08-06T09:14:43;24.30;96.80
57282;DHT22;43129;52.628;10.098;2023-08-06T09:17:10;23.50;97.60
57282;DHT22;43129;52.628;10.098;2023-08-06T09:19:42;23.40;98.50
57282;DHT22;43129;52.628;10.098;2023-08-06T09:22:12;22.90;97.70
57282;DHT22;43129;52.628;10.098;2023-08-06T09:24:40;22.50;99.60
57282;DHT22;43129;52.628;10.098;2023-08-06T09:27:13;23.00;99.10
57282;DHT22;43129;52.628;10.098;2023-08-06T09:29:44;23.90;96.50
57282;DHT22;43129;52.628;10.098;2023-08-06T09:32:11;23.80;97.60
57282;DHT22;43129;52.628;10.098;2023-08-06T09:34:40;24.10;96.50
57282;DHT22;43129;52.628;10.098;2023-08-06T09:37:06;24.20;94.60
57282;DHT22;43129;52.628;10.098;2023-08-06T09:39:34;24.30;95.00
57282;DHT22;43129;52.628;10.098;2023-08-06T09:42:01;24.40;93.80
57282;DHT22;43129;52.628;10.098;2023-08-06T09:44:28;24.70;92.80
57282;DHT22;43129;52.628;10.098;2023-08-06T09:46:58;25.30;93.10
57282;DHT22;43129;52.628;10.098;2023-08-06T09:51:59;27.00;78.10
57282;DHT22;43129;52.628;10.098;2023-08-06T09:54:26;27.40;69.70
57282;DHT22;43129;52.628;10.098;2023-08-06T09:56:53;27.10;71.20
57282;DHT22;43129;52.628;10.098;2023-08-06T09:59:22;26.40;63.20
57282;DHT22;43129;52.628;10.098;2023-08-06T10:01:52;24.70;72.70
57282;DHT22;43129;52.628;10.098;2023-08-06T10:04:20;24.10;81.20
57282;DHT22;43129;52.628;10.098;2023-08-06T10:06:47;23.80;84.90
57282;DHT22;43129;52.628;10.098;2023-08-06T10:09:16;22.90;83.30
57282;DHT22;43129;52.628;10.098;2023-08-06T10:11:50;22.60;83.70
57282;DHT22;43129;52.628;10.098;2023-08-06T10:14:35;23.30;83.60
57282;DHT22;43129;52.628;10.098;2023-08-06T10:17:02;24.80;75.80
57282;DHT22;43129;52.628;10.098;2023-08-06T10:19:31;25.40;70.20
57282;DHT22;43129;52.628;10.098;2023-08-06T10:22:17;27.10;64.80
57282;DHT22;43129;52.628;10.098;2023-08-06T10:24:58;28.00;59.50
57282;DHT22;43129;52.628;10.098;2023-08-06T10:28:06;28.50;58.40
57282;DHT22;43129;52.628;10.098;2023-08-06T10:30:31;27.90;60.70
57282;DHT22;43129;52.628;10.098;2023-08-06T10:33:01;28.70;57.50
57282;DHT22;43129;52.628;10.098;2023-08-06T10:40:33;28.40;57.50
57282;DHT22;43129;52.628;10.098;2023-08-06T10:43:00;27.90;55.00
57282;DHT22;43129;52.628;10.098;2023-08-06T10:45:29;28.30;55.70
57282;DHT22;43129;52.628;10.098;2023-08-06T10:47:56;28.60;52.30
57282;DHT22;43129;52.628;10.098;2023-08-06T10:50:25;29.10;52.20
57282;DHT22;43129;52.628;10.098;2023-08-06T10:52:56;29.80;48.90
57282;DHT22;43129;52.628;10.098;2023-08-06T10:55:26;30.70;46.40
57282;DHT22;43129;52.628;10.098;2023-08-06T10:57:55;31.40;43.00
57282;DHT22;43129;52.628;10.098;2023-08-06T11:00:22;31.60;43.00
57282;DHT22;43129;52.628;10.098;2023-08-06T11:02:52;31.20;43.00
57282;DHT22;43129;52.628;10.098;2023-08-06T11:05:20;29.90;46.60
57282;DHT22;43129;52.628;10.098;2023-08-06T11:07:46;29.20;47.60
57282;DHT22;43129;52.628;10.098;2023-08-06T11:10:16;29.40;49.40
57282;DHT22;43129;52.628;10.098;2023-08-06T11:12:43;29.30;50.10
57282;DHT22;43129;52.628;10.098;2023-08-06T11:15:09;29.70;45.90
57282;DHT22;43129;52.628;10.098;2023-08-06T11:17:35;28.90;47.50
57282;DHT22;43129;52.628;10.098;2023-08-06T11:20:05;27.80;48.20
57282;DHT22;43129;52.628;10.098;2023-08-06T11:22:31;26.90;51.40
57282;DHT22;43129;52.628;10.098;2023-08-06T11:24:59;26.50;53.90
57282;DHT22;43129;52.628;10.098;2023-08-06T11:27:27;26.50;54.20
57282;DHT22;43129;52.628;10.098;2023-08-06T11:29:56;28.50;51.40
57282;DHT22;43129;52.628;10.098;2023-08-06T11:32:22;29.60;48.40
57282;DHT22;43129;52.628;10.098;2023-08-06T11:34:48;29.50;46.50
57282;DHT22;43129;52.628;10.098;2023-08-06T11:37:13;31.20;45.30
57282;DHT22;43129;52.628;10.098;2023-08-06T11:39:46;32.00;41.70
57282;DHT22;43129;52.628;10.098;2023-08-06T11:42:12;32.90;38.70
57282;DHT22;43129;52.628;10.098;2023-08-06T11:44:37;32.60;39.90
57282;DHT22;43129;52.628;10.098;2023-08-06T11:47:13;31.10;42.50
57282;DHT22;43129;52.628;10.098;2023-08-06T11:52:11;30.60;42.70
57282;DHT22;43129;52.628;10.098;2023-08-06T11:54:40;29.50;44.30
57282;DHT22;43129;52.628;10.098;2023-08-06T11:57:07;29.00;45.20
57282;DHT22;43129;52.628;10.098;2023-08-06T11:59:33;28.60;46.60
57282;DHT22;43129;52.628;10.098;2023-08-06T12:02:03;28.20;49.30
57282;DHT22;43129;52.628;10.098;2023-08-06T12:04:31;28.60;48.20
57282;DHT22;43129;52.628;10.098;2023-08-06T12:07:05;28.40;48.90
57282;DHT22;43129;52.628;10.098;2023-08-06T12:09:33;27.70;49.70
57282;DHT22;43129;52.628;10.098;2023-08-06T12:11:59;28.20;49.30
57282;DHT22;43129;52.628;10.098;2023-08-06T12:14:24;29.20;47.00
57282;DHT22;43129;52.628;10.098;2023-08-06T12:16:52;29.50;45.40
57282;DHT22;43129;52.628;10.098;2023-08-06T12:19:18;29.60;44.70
57282;DHT22;43129;52.628;10.098;2023-08-06T12:21:43;29.10;45.80
57282;DHT22;43129;52.628;10.098;2023-08-06T12:24:11;28.60;46.80
57282;DHT22;43129;52.628;10.098;2023-08-06T12:26:37;28.00;48.60
57282;DHT22;43129;52.628;10.098;2023-08-06T12:29:02;27.60;48.40
57282;DHT22;43129;52.628;10.098;2023-08-06T12:31:28;27.60;49.20
57282;DHT22;43129;52.628;10.098;2023-08-06T12:33:54;27.00;51.50
57282;DHT22;43129;52.628;10.098;2023-08-06T12:36:21;27.30;52.20
57282;DHT22;43129;52.628;10.098;2023-08-06T12:38:47;28.40;50.00
57282;DHT22;43129;52.628;10.098;2023-08-06T12:41:13;29.90;46.70
57282;DHT22;43129;52.628;10.098;2023-08-06T12:43:43;29.30;45.60
57282;DHT22;43129;52.628;10.098;2023-08-06T12:46:11;28.50;47.00
57282;DHT22;43129;52.628;10.098;2023-08-06T12:48:41;28.20;47.50
57282;DHT22;43129;52.628;10.098;2023-08-06T12:51:07;27.80;47.30
57282;DHT22;43129;52.628;10.098;2023-08-06T12:53:34;27.60;47.70
57282;DHT22;43129;52.628;10.098;2023-08-06T12:56:02;28.20;47.40
57282;DHT22;43129;52.628;10.098;2023-08-06T12:58:28;29.60;45.20
57282;DHT22;43129;52.628;10.098;2023-08-06T13:00:54;31.20;43.50
57282;DHT22;43129;52.628;10.098;2023-08-06T13:03:20;32.00;42.40
57282;DHT22;43129;52.628;10.098;2023-08-06T13:05:46;32.10;41.40
57282;DHT22;43129;52.628;10.098;2023-08-06T13:08:11;31.50;41.50
57282;DHT22;43129;52.628;10.098;2023-08-06T13:10:39;30.20;42.90
57282;DHT22;43129;52.628;10.098;2023-08-06T13:13:07;29.00;45.60
57282;DHT22;43129;52.628;10.098;2023-08-06T13:15:32;28.40;48.30
57282;DHT22;43129;52.628;10.098;2023-08-06T13:18:00;27.30;50.80
57282;DHT22;43129;52.628;10.098;2023-08-06T13:20:26;26.40;53.60
57282;DHT22;43129;52.628;10.098;2023-08-06T13:22:52;26.60;54.30
57282;DHT22;43129;52.628;10.098;2023-08-06T13:25:19;27.30;52.20
57282;DHT22;43129;52.628;10.098;2023-08-06T13:27:45;28.20;48.90
57282;DHT22;43129;52.628;10.098;2023-08-06T13:30:13;28.70;46.00
57282;DHT22;43129;52.628;10.098;2023-08-06T13:32:39;28.90;46.50
57282;DHT22;43129;52.628;10.098;2023-08-06T13:35:05;28.40;47.70
57282;DHT22;43129;52.628;10.098;2023-08-06T13:37:31;28.30;47.60
57282;DHT22;43129;52.628;10.098;2023-08-06T13:39:56;28.10;49.80
57282;DHT22;43129;52.628;10.098;2023-08-06T13:42:24;27.80;50.80
57282;DHT22;43129;52.628;10.098;2023-08-06T13:44:50;26.90;53.90
57282;DHT22;43129;52.628;10.098;2023-08-06T13:47:18;26.60;54.90
57282;DHT22;43129;52.628;10.098;2023-08-06T13:49:46;27.00;53.20
57282;DHT22;43129;52.628;10.098;2023-08-06T13:52:11;27.80;50.50
57282;DHT22;43129;52.628;10.098;2023-08-06T13:54:39;28.00;50.10
57282;DHT22;43129;52.628;10.098;2023-08-06T13:57:05;28.00;51.40
57282;DHT22;43129;52.628;10.098;2023-08-06T13:59:33;28.40;50.80
57282;DHT22;43129;52.628;10.098;2023-08-06T14:01:58;27.90;50.90
57282;DHT22;43129;52.628;10.098;2023-08-06T14:04:25;27.40;50.70
57282;DHT22;43129;52.628;10.098;2023-08-06T14:06:51;27.20;51.10
57282;DHT22;43129;52.628;10.098;2023-08-06T14:09:18;26.90;52.70
57282;DHT22;43129;52.628;10.098;2023-08-06T14:11:44;26.70;53.40
57282;DHT22;43129;52.628;10.098;2023-08-06T14:14:11;26.40;54.30
57282;DHT22;43129;52.628;10.098;2023-08-06T14:16:36;27.10;54.60
57282;DHT22;43129;52.628;10.098;2023-08-06T14:19:02;28.40;51.70
57282;DHT22;43129;52.628;10.098;2023-08-06T14:21:30;30.10;47.70
57282;DHT22;43129;52.628;10.098;2023-08-06T14:23:56;31.00;44.40
57282;DHT22;43129;52.628;10.098;2023-08-06T14:26:22;32.40;41.10
57282;DHT22;43129;52.628;10.098;2023-08-06T14:28:48;32.30;40.50
57282;DHT22;43129;52.628;10.098;2023-08-06T14:31:13;32.80;38.90
57282;DHT22;43129;52.628;10.098;2023-08-06T14:33:39;32.50;38.70
57282;DHT22;43129;52.628;10.098;2023-08-06T14:36:07;31.10;40.50
57282;DHT22;43129;52.628;10.098;2023-08-06T14:38:32;29.90;43.50
57282;DHT22;43129;52.628;10.098;2023-08-06T14:41:00;30.40;43.70
57282;DHT22;43129;52.628;10.098;2023-08-06T14:43:28;31.80;41.30
57282;DHT22;43129;52.628;10.098;2023-08-06T14:45:56;32.00;40.30
57282;DHT22;43129;52.628;10.098;2023-08-06T14:48:24;32.00;40.20
57282;DHT22;43129;52.628;10.098;2023-08-06T14:50:55;32.50;39.00
57282;DHT22;43129;52.628;10.098;2023-08-06T14:53:20;32.70;37.60
57282;DHT22;43129;52.628;10.098;2023-08-06T14:55:46;32.60;36.80
57282;DHT22;43129;52.628;10.098;2023-08-06T14:58:12;32.00;37.70
57282;DHT22;43129;52.628;10.098;2023-08-06T15:00:37;32.20;37.60
57282;DHT22;43129;52.628;10.098;2023-08-06T15:03:03;32.50;37.40
57282;DHT22;43129;52.628;10.098;2023-08-06T15:05:31;32.40;36.70
57282;DHT22;43129;52.628;10.098;2023-08-06T15:07:57;32.60;37.20
57282;DHT22;43129;52.628;10.098;2023-08-06T15:10:22;32.40;36.90
57282;DHT22;43129;52.628;10.098;2023-08-06T15:12:48;31.20;38.30
57282;DHT22;43129;52.628;10.098;2023-08-06T15:15:14;31.60;39.10
57282;DHT22;43129;52.628;10.098;2023-08-06T15:17:40;32.50;38.00
57282;DHT22;43129;52.628;10.098;2023-08-06T15:20:08;33.00;37.30
57282;DHT22;43129;52.628;10.098;2023-08-06T15:22:34;32.80;37.20
57282;DHT22;43129;52.628;10.098;2023-08-06T15:25:00;33.20;36.40
57282;DHT22;43129;52.628;10.098;2023-08-06T15:27:29;33.10;35.20
57282;DHT22;43129;52.628;10.098;2023-08-06T15:29:58;31.60;38.00
57282;DHT22;43129;52.628;10.098;2023-08-06T15:32:26;29.70;42.40